Terminal Aerodrome Forecast
Issued by NWS Blacksburg, VA

Current Version | Previous Version | Text Only | Print | Product List | Glossary Off
Versions: 1 2 3 4 5 6 7 8 9 10 11 12 13 14 15 16 17 18 19 20 21 22 23 24 25 26 27 28 29 30 31 32 33 34

000
FTUS41 KRNK 090520
TAFBLF
TAF
KBLF 090520Z 0906/1006 24010G18KT P6SM VCSH BKN010 BKN045
      TEMPO 0906/0909 3SM -SHRA BR OVC022
     FM090900 26007KT 5SM BR SCT007 OVC025
     FM091400 27008KT P6SM BKN035
     FM091800 27006KT P6SM VCTS BKN045CB
     FM100000 25004KT P6SM SCT015 BKN040=

USA.gov is the U.S. government's official web portal to all federal, state and local government web resources and services.